Time;durP1;ratioP1;P1;durP2;ratioP2;P2;SDS_P1;SDS_P2;PMS_P1;PMS_P2;Temp;Humidity;BMP_temperature;BMP_pressure;BME280_temperature;BME280_humidity;BME280_pressure;Samples;Min_cycle;Max_cycle;Signal;HPM_P1;HPM_P2
2020/12/14 00:00:20;;;;;;;5.70;4.20;;;;;;;;;;5094651;28;20550;-18
2020/12/14 00:02:45;;;;;;;7.88;4.43;;;;;;;;;;5093446;28;20384;-19
2020/12/14 00:05:11;;;;;;;6.93;3.53;;;;;;;;;;5095007;28;20073;-18
2020/12/14 00:07:36;;;;;;;7.63;4.10;;;;;;;;;;5093184;28;20107;-19
2020/12/14 00:10:03;;;;;;;6.60;3.72;;;;;;;;;;5094682;28;20016;-19
2020/12/14 00:12:28;;;;;;;7.85;4.53;;;;;;;;;;5094492;28;20051;-20
2020/12/14 00:14:54;;;;;;;8.57;4.50;;;;;;;;;;5094496;28;20024;-19
2020/12/14 00:17:20;;;;;;;6.55;4.30;;;;;;;;;;5094795;28;20032;-19
2020/12/14 00:19:46;;;;;;;7.82;4.85;;;;;;;;;;5094635;28;20020;-22
2020/12/14 00:22:11;;;;;;;8.15;4.95;;;;;;;;;;5094250;28;20044;-19
2020/12/14 00:24:37;;;;;;;6.68;3.90;;;;;;;;;;5094207;28;20064;-20
2020/12/14 00:27:02;;;;;;;7.20;4.55;;;;;;;;;;5093036;28;20020;-19
2020/12/14 00:29:27;;;;;;;6.95;4.25;;;;;;;;;;5094103;28;20583;-18
2020/12/14 00:31:53;;;;;;;6.15;4.07;;;;;;;;;;5094086;28;20028;-19
2020/12/14 00:34:19;;;;;;;7.22;4.35;;;;;;;;;;5094139;28;20114;-18
2020/12/14 00:36:45;;;;;;;7.55;4.45;;;;;;;;;;5092807;28;20057;-20
2020/12/14 00:39:10;;;;;;;9.63;4.78;;;;;;;;;;5094031;28;20100;-19
2020/12/14 00:41:36;;;;;;;7.80;3.65;;;;;;;;;;5092553;28;20075;-19
2020/12/14 00:44:01;;;;;;;6.28;4.47;;;;;;;;;;5093846;28;20025;-20
2020/12/14 00:46:26;;;;;;;9.35;4.90;;;;;;;;;;5094084;28;20024;-19
2020/12/14 00:48:52;;;;;;;7.60;4.90;;;;;;;;;;5093896;28;20032;-19
2020/12/14 00:51:23;;;;;;;7.90;4.68;;;;;;;;;;5093482;28;20052;-19
2020/12/14 00:53:49;;;;;;;6.30;4.10;;;;;;;;;;5093814;28;20028;-19
2020/12/14 00:56:16;;;;;;;8.05;5.65;;;;;;;;;;5092408;28;20064;-19
2020/12/14 00:58:42;;;;;;;9.70;5.10;;;;;;;;;;5093659;28;20028;-19
2020/12/14 01:01:07;;;;;;;7.53;4.97;;;;;;;;;;5093629;28;20016;-18
2020/12/14 01:03:32;;;;;;;6.07;4.20;;;;;;;;;;5092216;28;20028;-19
2020/12/14 01:06:00;;;;;;;6.60;4.38;;;;;;;;;;5092023;28;20019;-19
2020/12/14 01:08:26;;;;;;;7.30;4.18;;;;;;;;;;5093378;28;20129;-21
2020/12/14 01:10:51;;;;;;;7.05;3.97;;;;;;;;;;5093429;28;20038;-19
2020/12/14 01:13:17;;;;;;;6.28;4.40;;;;;;;;;;5092102;28;20112;-19
2020/12/14 01:15:42;;;;;;;9.38;4.38;;;;;;;;;;5093351;28;20103;-19
2020/12/14 01:18:09;;;;;;;8.02;4.70;;;;;;;;;;5092019;28;20111;-18
2020/12/14 01:20:34;;;;;;;6.45;3.63;;;;;;;;;;5093071;28;20454;-19
2020/12/14 01:23:00;;;;;;;8.13;3.92;;;;;;;;;;5091875;28;20036;-20
2020/12/14 01:25:25;;;;;;;8.13;4.43;;;;;;;;;;5093076;28;20026;-19
2020/12/14 01:27:50;;;;;;;7.85;4.47;;;;;;;;;;5093063;28;20042;-18
2020/12/14 01:30:16;;;;;;;7.22;4.82;;;;;;;;;;5093076;28;20070;-19
2020/12/14 01:32:41;;;;;;;7.10;3.97;;;;;;;;;;5091586;28;20497;-19
2020/12/14 01:35:07;;;;;;;7.65;4.90;;;;;;;;;;5092991;28;20016;-19
2020/12/14 01:37:32;;;;;;;7.18;4.95;;;;;;;;;;5093188;28;20036;-18
2020/12/14 01:39:57;;;;;;;8.60;4.40;;;;;;;;;;5091531;28;20520;-19
2020/12/14 01:42:23;;;;;;;5.07;3.65;;;;;;;;;;5092974;28;20116;-19
2020/12/14 01:44:49;;;;;;;6.07;4.00;;;;;;;;;;5093130;28;20020;-18
2020/12/14 01:47:19;;;;;;;7.63;4.05;;;;;;;;;;5091538;28;20024;-18
2020/12/14 01:49:44;;;;;;;7.20;4.47;;;;;;;;;;5091290;28;20457;-20
2020/12/14 01:52:10;;;;;;;6.05;3.95;;;;;;;;;;5091539;28;20059;-18
2020/12/14 01:54:36;;;;;;;8.88;4.40;;;;;;;;;;5092643;28;20024;-19
2020/12/14 01:57:02;;;;;;;8.43;4.07;;;;;;;;;;5092954;28;20489;-19
2020/12/14 01:59:28;;;;;;;7.32;4.82;;;;;;;;;;5092478;28;20458;-18
2020/12/14 02:01:53;;;;;;;6.80;4.20;;;;;;;;;;5092611;28;20134;-18
2020/12/14 02:04:18;;;;;;;6.68;5.10;;;;;;;;;;5092491;28;20020;-19
2020/12/14 02:06:44;;;;;;;7.00;4.30;;;;;;;;;;5092571;28;20039;-19
2020/12/14 02:09:09;;;;;;;7.50;4.65;;;;;;;;;;5092489;28;20020;-19
2020/12/14 02:11:34;;;;;;;9.75;5.57;;;;;;;;;;5091060;28;20032;-19
2020/12/14 02:14:00;;;;;;;7.35;4.78;;;;;;;;;;5092524;28;20024;-19
2020/12/14 02:16:25;;;;;;;8.10;4.97;;;;;;;;;;5090840;28;20032;-19
2020/12/14 02:18:51;;;;;;;7.43;4.85;;;;;;;;;;5090590;28;20027;-19
2020/12/14 02:21:16;;;;;;;7.63;4.80;;;;;;;;;;5092369;28;20028;-18
2020/12/14 02:23:44;;;;;;;6.35;3.90;;;;;;;;;;5092289;28;20036;-19
2020/12/14 02:26:10;;;;;;;6.32;4.45;;;;;;;;;;5092355;28;20490;-19
2020/12/14 02:28:36;;;;;;;5.90;3.60;;;;;;;;;;5092308;28;20055;-20
2020/12/14 02:31:01;;;;;;;7.07;4.60;;;;;;;;;;5092419;28;20043;-18
2020/12/14 02:33:26;;;;;;;7.82;5.18;;;;;;;;;;5092292;28;20031;-19
2020/12/14 02:35:52;;;;;;;6.65;4.20;;;;;;;;;;5092530;28;20044;-19
2020/12/14 02:38:17;;;;;;;6.28;3.83;;;;;;;;;;5090890;28;20664;-20
2020/12/14 02:40:43;;;;;;;7.35;4.70;;;;;;;;;;5092268;28;20028;-20
2020/12/14 02:43:08;;;;;;;7.32;5.63;;;;;;;;;;5090871;28;20062;-18
2020/12/14 02:45:33;;;;;;;6.13;4.20;;;;;;;;;;5092299;28;20493;-19
2020/12/14 02:47:59;;;;;;;7.80;4.68;;;;;;;;;;5092363;28;20069;-19
2020/12/14 02:50:24;;;;;;;8.13;4.13;;;;;;;;;;5092057;28;20426;-25
2020/12/14 02:52:50;;;;;;;6.75;4.03;;;;;;;;;;5092396;28;20024;-19
2020/12/14 02:55:15;;;;;;;6.25;4.20;;;;;;;;;;5090873;28;20094;-19
2020/12/14 02:57:41;;;;;;;5.20;3.65;;;;;;;;;;5092219;28;20051;-20
2020/12/14 03:00:06;;;;;;;6.05;3.92;;;;;;;;;;5092240;28;20035;-19
2020/12/14 03:02:31;;;;;;;6.97;4.32;;;;;;;;;;5091826;28;20421;-20
2020/12/14 03:04:57;;;;;;;5.72;3.33;;;;;;;;;;5092114;28;20070;-18
2020/12/14 03:07:22;;;;;;;6.07;3.75;;;;;;;;;;5091922;28;20020;-19
2020/12/14 03:09:48;;;;;;;5.40;4.00;;;;;;;;;;5091903;28;20073;-19
2020/12/14 03:12:13;;;;;;;4.35;3.17;;;;;;;;;;5092154;28;20026;-19
2020/12/14 03:14:39;;;;;;;4.13;3.10;;;;;;;;;;5091728;28;20031;-19
2020/12/14 03:17:05;;;;;;;7.35;4.07;;;;;;;;;;5090705;28;20028;-19
2020/12/14 03:19:30;;;;;;;6.13;3.83;;;;;;;;;;5091774;28;20024;-18
2020/12/14 03:21:55;;;;;;;4.85;3.50;;;;;;;;;;5091753;28;20039;-19
2020/12/14 03:24:21;;;;;;;8.20;4.20;;;;;;;;;;5091433;28;20111;-21
2020/12/14 03:26:50;;;;;;;7.18;4.38;;;;;;;;;;5092042;28;20020;-21
2020/12/14 03:29:15;;;;;;;7.15;4.43;;;;;;;;;;5092510;28;20028;-20
2020/12/14 03:31:41;;;;;;;7.72;4.60;;;;;;;;;;5095289;28;20023;-18
2020/12/14 03:34:06;;;;;;;5.10;3.80;;;;;;;;;;5095278;28;20112;-18
2020/12/14 03:36:31;;;;;;;8.30;4.00;;;;;;;;;;5095209;28;20048;-21
2020/12/14 03:38:57;;;;;;;5.15;3.05;;;;;;;;;;5095187;28;20478;-21
2020/12/14 03:41:23;;;;;;;5.20;3.53;;;;;;;;;;5095079;28;20015;-20
2020/12/14 03:43:49;;;;;;;7.05;4.22;;;;;;;;;;5077174;28;20040;-21
2020/12/14 03:46:15;;;;;;;6.28;3.75;;;;;;;;;;5093869;28;20463;-20
2020/12/14 03:48:40;;;;;;;6.50;3.83;;;;;;;;;;5095180;28;20531;-21
2020/12/14 03:51:07;;;;;;;6.00;4.22;;;;;;;;;;5094854;28;20123;-19
2020/12/14 03:53:32;;;;;;;5.63;4.35;;;;;;;;;;5095249;28;20428;-19
2020/12/14 03:55:58;;;;;;;4.85;3.63;;;;;;;;;;5095002;28;20016;-19
2020/12/14 03:58:24;;;;;;;4.88;3.35;;;;;;;;;;5094784;28;20083;-19
2020/12/14 04:00:49;;;;;;;4.97;3.88;;;;;;;;;;5094905;28;20060;-19
2020/12/14 04:03:15;;;;;;;5.28;3.53;;;;;;;;;;5093397;28;20085;-19
2020/12/14 04:05:42;;;;;;;4.70;3.42;;;;;;;;;;5094740;28;20531;-18
2020/12/14 04:08:08;;;;;;;5.47;3.55;;;;;;;;;;5093373;28;20036;-21
2020/12/14 04:10:37;;;;;;;5.43;3.85;;;;;;;;;;5094494;28;20015;-18
2020/12/14 04:13:02;;;;;;;9.05;5.13;;;;;;;;;;5094684;28;20027;-18
2020/12/14 04:15:28;;;;;;;5.97;3.42;;;;;;;;;;5094826;28;20020;-18
2020/12/14 04:17:53;;;;;;;6.20;3.67;;;;;;;;;;5094456;28;20031;-21
2020/12/14 04:20:18;;;;;;;6.65;3.42;;;;;;;;;;5094516;28;20422;-22
2020/12/14 04:22:44;;;;;;;5.78;4.20;;;;;;;;;;5094271;28;20044;-20
2020/12/14 04:25:09;;;;;;;6.95;3.65;;;;;;;;;;5094647;28;20032;-18
2020/12/14 04:27:35;;;;;;;7.03;3.40;;;;;;;;;;5094217;28;20020;-19
2020/12/14 04:30:00;;;;;;;5.20;3.10;;;;;;;;;;5092964;28;20028;-19
2020/12/14 04:32:25;;;;;;;6.78;3.65;;;;;;;;;;5092909;28;20111;-18
2020/12/14 04:34:51;;;;;;;6.85;3.80;;;;;;;;;;5092887;28;20024;-19
2020/12/14 04:37:16;;;;;;;6.75;4.18;;;;;;;;;;5094135;28;20050;-19
2020/12/14 04:39:42;;;;;;;5.88;3.38;;;;;;;;;;5092461;28;20091;-19
2020/12/14 04:42:07;;;;;;;5.78;4.28;;;;;;;;;;5092326;28;20054;-18
2020/12/14 04:44:34;;;;;;;6.35;3.88;;;;;;;;;;5094168;28;20027;-20
2020/12/14 04:46:59;;;;;;;4.40;3.25;;;;;;;;;;5093961;28;20031;-19
2020/12/14 04:49:25;;;;;;;6.97;3.60;;;;;;;;;;5093606;28;20486;-18
2020/12/14 04:51:51;;;;;;;6.50;3.72;;;;;;;;;;5092869;28;20032;-19
2020/12/14 04:54:18;;;;;;;5.13;2.72;;;;;;;;;;5093877;28;20031;-19
2020/12/14 04:56:46;;;;;;;4.95;3.67;;;;;;;;;;5093640;28;20032;-20
2020/12/14 04:59:12;;;;;;;5.45;3.55;;;;;;;;;;5093688;28;20020;-19
2020/12/14 05:01:37;;;;;;;4.50;3.25;;;;;;;;;;5093805;28;20036;-18
2020/12/14 05:04:02;;;;;;;4.60;3.13;;;;;;;;;;5093941;28;20047;-19
2020/12/14 05:06:42;;;;;;;6.63;4.15;;;;;;;;;;5093497;28;20032;-18
2020/12/14 05:09:15;;;;;;;6.57;3.50;;;;;;;;;;5092283;28;20391;-19
2020/12/14 05:11:40;;;;;;;4.75;3.15;;;;;;;;;;5092210;28;20560;-19
2020/12/14 05:14:13;;;;;;;4.03;2.80;;;;;;;;;;5093519;28;20055;-19
2020/12/14 05:16:39;;;;;;;5.20;3.75;;;;;;;;;;5092014;28;20601;-19
2020/12/14 05:19:22;;;;;;;5.03;3.08;;;;;;;;;;5093615;28;20047;-19
2020/12/14 05:21:49;;;;;;;4.63;3.10;;;;;;;;;;5091871;28;20382;-19
2020/12/14 05:24:18;;;;;;;5.47;3.17;;;;;;;;;;5091979;28;20020;-19
2020/12/14 05:26:46;;;;;;;5.15;3.33;;;;;;;;;;5091826;28;20036;-20
2020/12/14 05:29:18;;;;;;;4.88;3.05;;;;;;;;;;5093016;28;20024;-19
2020/12/14 05:32:06;;;;;;;3.80;2.60;;;;;;;;;;5093073;28;20035;-19
2020/12/14 05:34:33;;;;;;;5.05;3.08;;;;;;;;;;5082160;28;20070;-19
2020/12/14 05:37:03;;;;;;;5.63;3.25;;;;;;;;;;5093038;28;20024;-20
2020/12/14 05:39:29;;;;;;;5.70;3.53;;;;;;;;;;5092950;28;20024;-18
2020/12/14 05:42:06;;;;;;;5.03;3.20;;;;;;;;;;5092937;28;20016;-19
2020/12/14 05:44:31;;;;;;;4.28;3.10;;;;;;;;;;5093128;28;20448;-20
2020/12/14 05:46:56;;;;;;;4.03;2.80;;;;;;;;;;5093160;28;20016;-19
2020/12/14 05:49:22;;;;;;;5.72;3.38;;;;;;;;;;5091105;28;20048;-19
2020/12/14 05:51:47;;;;;;;4.20;2.97;;;;;;;;;;5091192;28;20024;-20
2020/12/14 05:54:16;;;;;;;6.32;3.10;;;;;;;;;;5092907;28;20062;-18
2020/12/14 05:56:41;;;;;;;3.50;2.47;;;;;;;;;;5092951;28;20012;-18
2020/12/14 05:59:07;;;;;;;4.13;2.97;;;;;;;;;;5091338;28;20382;-19
2020/12/14 06:01:32;;;;;;;4.75;2.78;;;;;;;;;;5092767;28;20023;-19
2020/12/14 06:03:57;;;;;;;6.88;3.35;;;;;;;;;;5092872;28;20355;-19
2020/12/14 06:06:27;;;;;;;15.27;8.57;;;;;;;;;;5092550;28;20016;-18
2020/12/14 06:08:56;;;;;;;5.68;3.78;;;;;;;;;;5091202;28;20455;-19
2020/12/14 06:11:23;;;;;;;5.13;2.83;;;;;;;;;;5092518;28;20023;-19
2020/12/14 06:13:56;;;;;;;4.78;3.20;;;;;;;;;;5092498;28;20115;-20
2020/12/14 06:16:25;;;;;;;3.65;2.70;;;;;;;;;;5092569;28;20024;-18
2020/12/14 06:18:51;;;;;;;4.75;3.05;;;;;;;;;;5092379;28;20036;-20
2020/12/14 06:21:19;;;;;;;3.88;2.83;;;;;;;;;;5091195;28;20028;-19
2020/12/14 06:23:45;;;;;;;5.22;3.33;;;;;;;;;;5092391;28;20038;-19
2020/12/14 06:26:12;;;;;;;6.75;3.45;;;;;;;;;;5092640;28;20028;-19
2020/12/14 06:28:38;;;;;;;3.85;2.60;;;;;;;;;;5092330;28;20078;-20
2020/12/14 06:31:03;;;;;;;3.90;2.88;;;;;;;;;;5092326;28;20024;-19
2020/12/14 06:33:31;;;;;;;5.03;3.30;;;;;;;;;;5092182;28;20107;-19
2020/12/14 06:35:57;;;;;;;4.13;3.05;;;;;;;;;;5092630;28;20032;-19
2020/12/14 06:38:38;;;;;;;4.55;2.95;;;;;;;;;;5092486;28;20451;-19
2020/12/14 06:41:09;;;;;;;4.47;2.50;;;;;;;;;;5090952;28;20025;-20
2020/12/14 06:43:35;;;;;;;4.00;2.75;;;;;;;;;;5092149;28;20043;-19
2020/12/14 06:46:04;;;;;;;4.28;3.15;;;;;;;;;;5092204;28;20009;-19
2020/12/14 06:48:32;;;;;;;5.35;3.80;;;;;;;;;;5091992;28;20035;-19
2020/12/14 06:50:58;;;;;;;4.57;3.42;;;;;;;;;;5090822;28;20513;-18
2020/12/14 06:53:53;;;;;;;5.32;3.10;;;;;;;;;;5092084;28;20028;-19
2020/12/14 06:56:27;;;;;;;4.97;3.00;;;;;;;;;;5074435;28;20502;-19
2020/12/14 06:58:53;;;;;;;4.18;2.88;;;;;;;;;;5092043;28;20073;-17
2020/12/14 07:01:35;;;;;;;4.00;3.35;;;;;;;;;;5090680;28;20028;-18
2020/12/14 07:04:01;;;;;;;4.65;3.15;;;;;;;;;;5093698;28;20040;-19
2020/12/14 07:06:27;;;;;;;4.97;3.20;;;;;;;;;;5095818;28;20016;-18
2020/12/14 07:08:53;;;;;;;5.00;2.92;;;;;;;;;;5094477;28;20101;-19
2020/12/14 07:11:20;;;;;;;3.88;2.75;;;;;;;;;;5096143;28;20469;-18
2020/12/14 07:13:46;;;;;;;4.53;3.00;;;;;;;;;;5095677;28;20028;-19
2020/12/14 07:16:13;;;;;;;4.45;2.80;;;;;;;;;;5095754;28;20050;-20
2020/12/14 07:18:40;;;;;;;3.50;2.75;;;;;;;;;;5095639;28;20028;-19
2020/12/14 07:21:10;;;;;;;4.40;2.88;;;;;;;;;;5095765;28;20020;-19
2020/12/14 07:23:36;;;;;;;5.13;3.67;;;;;;;;;;5095606;28;20040;-19
2020/12/14 07:26:03;;;;;;;4.18;2.78;;;;;;;;;;5095618;28;20485;-19
2020/12/14 07:28:37;;;;;;;3.70;2.85;;;;;;;;;;5095581;28;20108;-21
2020/12/14 07:31:10;;;;;;;3.78;2.88;;;;;;;;;;5094215;28;20471;-19
2020/12/14 07:33:36;;;;;;;4.40;3.00;;;;;;;;;;5095367;28;20490;-19
2020/12/14 07:36:06;;;;;;;4.18;3.20;;;;;;;;;;5095309;28;20022;-19
2020/12/14 07:38:31;;;;;;;7.05;3.88;;;;;;;;;;5095441;28;20032;-18
2020/12/14 07:41:07;;;;;;;7.13;4.10;;;;;;;;;;5095362;28;20016;-20
2020/12/14 07:43:45;;;;;;;8.25;4.72;;;;;;;;;;5095026;28;20054;-19
2020/12/14 07:46:17;;;;;;;6.40;4.40;;;;;;;;;;5095218;28;20402;-19
2020/12/14 07:48:49;;;;;;;7.90;4.15;;;;;;;;;;5093698;28;20051;-19
2020/12/14 07:51:15;;;;;;;7.22;3.47;;;;;;;;;;5093524;28;20468;-19
2020/12/14 07:53:41;;;;;;;3.53;2.70;;;;;;;;;;5094997;28;20024;-19
2020/12/14 07:56:07;;;;;;;4.45;3.25;;;;;;;;;;5095249;28;20083;-20
2020/12/14 07:58:33;;;;;;;5.90;2.28;;;;;;;;;;5094695;28;20047;-20
2020/12/14 08:00:58;;;;;;;3.80;2.55;;;;;;;;;;5094967;28;20024;-19
2020/12/14 08:03:24;;;;;;;3.33;2.20;;;;;;;;;;5094848;28;20479;-19
2020/12/14 08:05:49;;;;;;;8.70;5.65;;;;;;;;;;5094990;28;20024;-20
2020/12/14 08:08:15;;;;;;;3.75;2.67;;;;;;;;;;5094987;28;20024;-20
2020/12/14 08:10:40;;;;;;;4.72;2.90;;;;;;;;;;5094819;28;20024;-20
2020/12/14 08:13:09;;;;;;;5.80;3.95;;;;;;;;;;5094737;28;20039;-18
2020/12/14 08:15:35;;;;;;;6.28;3.13;;;;;;;;;;5093495;28;20020;-19
2020/12/14 08:18:01;;;;;;;6.72;2.70;;;;;;;;;;5094563;28;20175;-20
2020/12/14 08:20:28;;;;;;;4.97;3.28;;;;;;;;;;5093155;28;20077;-19
2020/12/14 08:22:54;;;;;;;4.22;2.33;;;;;;;;;;5093029;28;20122;-19
2020/12/14 08:25:21;;;;;;;3.95;2.45;;;;;;;;;;5093206;28;20068;-18
2020/12/14 08:27:48;;;;;;;3.17;2.13;;;;;;;;;;5094155;28;20050;-19
2020/12/14 08:30:16;;;;;;;4.03;2.63;;;;;;;;;;5092995;28;20039;-20
2020/12/14 08:32:41;;;;;;;3.45;2.50;;;;;;;;;;5092868;28;20050;-19
2020/12/14 08:35:24;;;;;;;4.85;2.97;;;;;;;;;;5094463;28;20055;-19
2020/12/14 08:37:51;;;;;;;4.05;1.95;;;;;;;;;;5094200;28;20032;-19
2020/12/14 08:40:17;;;;;;;3.53;2.22;;;;;;;;;;5094134;28;20082;-20
2020/12/14 08:42:43;;;;;;;5.22;2.75;;;;;;;;;;5093920;28;20127;-19
2020/12/14 08:45:14;;;;;;;3.83;2.47;;;;;;;;;;5093845;28;20116;-20
2020/12/14 08:47:41;;;;;;;4.20;2.97;;;;;;;;;;5093819;28;20024;-20
2020/12/14 08:50:08;;;;;;;5.10;2.83;;;;;;;;;;5093773;28;20375;-18
2020/12/14 08:52:33;;;;;;;2.92;2.58;;;;;;;;;;5093819;28;20539;-20
2020/12/14 08:54:59;;;;;;;4.68;2.83;;;;;;;;;;5094095;28;20091;-18
2020/12/14 08:57:25;;;;;;;3.20;2.65;;;;;;;;;;5093782;28;20518;-18
2020/12/14 09:00:17;;;;;;;3.72;2.70;;;;;;;;;;5093789;28;20020;-19
2020/12/14 09:02:42;;;;;;;3.08;1.95;;;;;;;;;;5089658;28;20478;-19
2020/12/14 09:05:14;;;;;;;3.97;2.80;;;;;;;;;;5093594;28;20072;-19
2020/12/14 09:07:40;;;;;;;4.55;3.03;;;;;;;;;;5092175;28;20059;-19
2020/12/14 09:10:14;;;;;;;4.80;2.60;;;;;;;;;;5093336;28;20040;-19
2020/12/14 09:12:40;;;;;;;2.92;1.98;;;;;;;;;;5092229;28;20039;-20
2020/12/14 09:15:05;;;;;;;3.60;2.10;;;;;;;;;;5092115;28;20016;-19
2020/12/14 09:17:31;;;;;;;4.22;2.42;;;;;;;;;;5093320;28;20466;-18
2020/12/14 09:19:57;;;;;;;2.80;2.13;;;;;;;;;;5093427;28;20082;-18
2020/12/14 09:22:26;;;;;;;4.07;2.47;;;;;;;;;;5091972;28;20482;-19
2020/12/14 09:24:52;;;;;;;3.92;1.85;;;;;;;;;;5091943;28;20027;-20
2020/12/14 09:27:18;;;;;;;3.88;2.35;;;;;;;;;;5092973;28;20028;-19
2020/12/14 09:29:44;;;;;;;3.15;2.00;;;;;;;;;;5093350;28;20023;-19
2020/12/14 09:32:11;;;;;;;3.15;2.42;;;;;;;;;;5091918;28;20035;-19
2020/12/14 09:34:39;;;;;;;4.72;2.75;;;;;;;;;;5093311;28;20027;-21
2020/12/14 09:37:05;;;;;;;2.03;1.83;;;;;;;;;;5091788;28;20032;-19
2020/12/14 09:39:32;;;;;;;2.78;1.98;;;;;;;;;;5091678;28;20107;-19
2020/12/14 09:41:58;;;;;;;2.28;1.83;;;;;;;;;;5093007;28;20027;-19
2020/12/14 09:44:24;;;;;;;4.68;2.30;;;;;;;;;;5093204;28;20077;-18
2020/12/14 09:46:49;;;;;;;2.90;1.75;;;;;;;;;;5091606;28;20116;-20
2020/12/14 09:49:15;;;;;;;5.82;2.00;;;;;;;;;;5091461;28;20462;-20
2020/12/14 09:51:41;;;;;;;2.40;1.80;;;;;;;;;;5092822;28;20031;-20
2020/12/14 09:54:06;;;;;;;2.58;1.85;;;;;;;;;;5093117;28;20379;-19
2020/12/14 09:56:33;;;;;;;3.35;1.90;;;;;;;;;;5091670;28;20480;-19
2020/12/14 09:58:58;;;;;;;2.78;1.77;;;;;;;;;;5092926;28;20096;-19
2020/12/14 10:01:24;;;;;;;3.67;1.70;;;;;;;;;;5092740;28;20423;-19
2020/12/14 10:03:50;;;;;;;3.20;2.20;;;;;;;;;;5092876;28;20612;-19
2020/12/14 10:06:16;;;;;;;2.78;1.75;;;;;;;;;;5092898;28;20028;-21
2020/12/14 10:08:42;;;;;;;2.95;1.77;;;;;;;;;;5092498;28;20020;-20
2020/12/14 10:11:08;;;;;;;7.43;2.20;;;;;;;;;;5092587;28;20020;-20
2020/12/14 10:13:34;;;;;;;2.95;2.00;;;;;;;;;;5092468;28;20424;-19
2020/12/14 10:15:59;;;;;;;1.58;1.27;;;;;;;;;;5092487;28;20088;-20
2020/12/14 10:18:25;;;;;;;2.47;1.92;;;;;;;;;;5091213;28;20021;-17
2020/12/14 10:20:51;;;;;;;4.20;3.15;;;;;;;;;;4742688;28;10000058;-20
2020/12/14 10:23:16;;;;;;;3.63;1.83;;;;;;;;;;5092323;28;20085;-20
2020/12/14 10:25:42;;;;;;;2.70;2.50;;;;;;;;;;5089104;28;20032;-20
2020/12/14 10:28:09;;;;;;;4.05;3.10;;;;;;;;;;5089078;28;20099;-20
2020/12/14 10:30:36;;;;;;;2.78;2.55;;;;;;;;;;5089059;28;20495;-21
2020/12/14 10:33:03;;;;;;;3.38;3.08;;;;;;;;;;5088696;28;20059;-21
2020/12/14 10:35:29;;;;;;;1.30;1.20;;;;;;;;;;5089040;28;20052;-21
2020/12/14 10:37:55;;;;;;;3.05;1.60;;;;;;;;;;5088967;28;20082;-21
2020/12/14 10:40:22;;;;;;;3.88;2.22;;;;;;;;;;5093535;28;20032;-21
2020/12/14 10:42:47;;;;;;;3.40;2.05;;;;;;;;;;5091817;28;20719;-20
2020/12/14 10:45:13;;;;;;;3.45;1.90;;;;;;;;;;5092889;28;20043;-20
2020/12/14 10:47:41;;;;;;;3.17;2.15;;;;;;;;;;5093006;28;20024;-21
2020/12/14 10:50:07;;;;;;;3.00;1.98;;;;;;;;;;5092777;28;20048;-21
2020/12/14 10:52:33;;;;;;;1.92;1.70;;;;;;;;;;5091328;28;20424;-20
2020/12/14 10:54:58;;;;;;;3.22;1.92;;;;;;;;;;5093082;28;20115;-20
2020/12/14 10:57:24;;;;;;;2.88;2.00;;;;;;;;;;5092368;28;20024;-21
2020/12/14 10:59:49;;;;;;;3.08;2.00;;;;;;;;;;5092564;28;20539;-21
2020/12/14 11:02:15;;;;;;;2.47;1.90;;;;;;;;;;5092679;28;20061;-21
2020/12/14 11:04:40;;;;;;;2.50;1.73;;;;;;;;;;5091579;28;20089;-20
2020/12/14 11:07:06;;;;;;;3.13;1.98;;;;;;;;;;5091424;28;20386;-21
2020/12/14 11:09:32;;;;;;;2.65;1.80;;;;;;;;;;5092500;28;20030;-21
2020/12/14 11:11:58;;;;;;;3.47;2.00;;;;;;;;;;5092651;28;20482;-20
2020/12/14 11:14:23;;;;;;;2.47;1.77;;;;;;;;;;5091174;28;20036;-26
2020/12/14 11:16:49;;;;;;;2.85;2.10;;;;;;;;;;5092261;28;20094;-20
2020/12/14 11:19:14;;;;;;;2.88;1.92;;;;;;;;;;5092451;28;20371;-20
2020/12/14 11:21:40;;;;;;;3.78;2.45;;;;;;;;;;5101206;28;20073;-19
2020/12/14 11:24:07;;;;;;;1.75;1.60;;;;;;;;;;5112604;28;20039;-21
2020/12/14 11:26:32;;;;;;;4.10;1.77;;;;;;;;;;5112578;28;20020;-21
2020/12/14 11:28:58;;;;;;;2.83;2.40;;;;;;;;;;5112737;28;20084;-19
2020/12/14 11:31:23;;;;;;;2.25;1.60;;;;;;;;;;5112897;28;20054;-21
2020/12/14 11:33:49;;;;;;;2.88;1.80;;;;;;;;;;5112443;28;20031;-20
2020/12/14 11:36:14;;;;;;;3.38;2.13;;;;;;;;;;5112700;28;20129;-21
2020/12/14 11:38:40;;;;;;;2.00;1.58;;;;;;;;;;5112396;28;20059;-20
2020/12/14 11:41:05;;;;;;;2.55;1.65;;;;;;;;;;5112242;28;20034;-22
2020/12/14 11:43:31;;;;;;;3.08;1.48;;;;;;;;;;5112288;28;20189;-20
2020/12/14 11:45:56;;;;;;;3.95;1.88;;;;;;;;;;5111845;28;20470;-29
2020/12/14 11:48:22;;;;;;;5.43;4.93;;;;;;;;;;5110698;28;20366;-21
2020/12/14 11:50:49;;;;;;;2.95;1.58;;;;;;;;;;5111915;28;20043;-20
2020/12/14 11:53:15;;;;;;;1.35;1.23;;;;;;;;;;5112284;28;20065;-20
2020/12/14 11:55:40;;;;;;;1.48;1.38;;;;;;;;;;5112080;28;20100;-20
2020/12/14 11:58:05;;;;;;;2.28;1.83;;;;;;;;;;5111721;28;20043;-20
2020/12/14 12:00:31;;;;;;;1.20;1.10;;;;;;;;;;5093323;28;20016;-20
2020/12/14 12:02:56;;;;;;;1.23;1.13;;;;;;;;;;5111726;28;20134;-19
2020/12/14 12:05:22;;;;;;;2.15;1.70;;;;;;;;;;5111851;28;20023;-20
2020/12/14 12:07:48;;;;;;;2.72;1.60;;;;;;;;;;5110172;28;20803;-21
2020/12/14 12:10:13;;;;;;;2.55;1.30;;;;;;;;;;5110009;28;20103;-20
2020/12/14 12:12:39;;;;;;;1.50;1.10;;;;;;;;;;5111537;28;20115;-22
2020/12/14 12:15:04;;;;;;;1.55;1.25;;;;;;;;;;5111851;28;20020;-20
2020/12/14 12:17:30;;;;;;;1.73;1.05;;;;;;;;;;5111742;28;20466;-22
2020/12/14 12:19:55;;;;;;;3.17;1.48;;;;;;;;;;5111509;28;20049;-21
2020/12/14 12:22:21;;;;;;;1.48;1.10;;;;;;;;;;5110639;28;20042;-21
2020/12/14 12:24:46;;;;;;;1.10;0.98;;;;;;;;;;5109940;28;20011;-19
2020/12/14 12:27:12;;;;;;;1.92;0.93;;;;;;;;;;5111267;28;20490;-19
2020/12/14 12:29:37;;;;;;;3.42;1.15;;;;;;;;;;5110792;28;20023;-21
2020/12/14 12:32:03;;;;;;;2.97;1.05;;;;;;;;;;5111441;28;20063;-21
2020/12/14 12:34:28;;;;;;;6.57;1.25;;;;;;;;;;5109740;28;20466;-22
2020/12/14 12:36:54;;;;;;;5.45;1.20;;;;;;;;;;5109564;28;20036;-21
2020/12/14 12:39:20;;;;;;;1.40;1.10;;;;;;;;;;5111401;28;20559;-21
2020/12/14 12:41:47;;;;;;;1.98;1.52;;;;;;;;;;5111013;28;20034;-20
2020/12/14 12:44:12;;;;;;;1.88;1.38;;;;;;;;;;5110877;28;20057;-20
2020/12/14 12:46:38;;;;;;;1.70;1.30;;;;;;;;;;5110919;28;20031;-19
2020/12/14 12:49:03;;;;;;;1.90;1.55;;;;;;;;;;5110869;28;20015;-20
2020/12/14 12:51:29;;;;;;;3.15;2.20;;;;;;;;;;5109332;28;20450;-22
2020/12/14 12:53:54;;;;;;;2.95;1.65;;;;;;;;;;5110962;27;20023;-20
2020/12/14 12:56:23;;;;;;;5.18;1.75;;;;;;;;;;5109354;28;20039;-21
2020/12/14 12:58:49;;;;;;;1.75;1.27;;;;;;;;;;5110414;28;20012;-21
2020/12/14 13:01:17;;;;;;;3.60;1.92;;;;;;;;;;5110247;28;20049;-23
2020/12/14 13:03:43;;;;;;;4.80;1.70;;;;;;;;;;5110966;28;20036;-20
2020/12/14 13:06:08;;;;;;;2.15;1.73;;;;;;;;;;5110859;28;20092;-20
2020/12/14 13:08:34;;;;;;;3.05;1.90;;;;;;;;;;5110198;28;20019;-22
2020/12/14 13:10:59;;;;;;;1.50;1.10;;;;;;;;;;5110572;28;20047;-21
2020/12/14 13:13:25;;;;;;;1.95;1.30;;;;;;;;;;5109330;28;20024;-22
2020/12/14 13:15:50;;;;;;;3.13;1.45;;;;;;;;;;5110392;28;20076;-20
2020/12/14 13:18:15;;;;;;;4.95;1.90;;;;;;;;;;5110197;28;20499;-22
2020/12/14 13:20:43;;;;;;;4.75;1.60;;;;;;;;;;5110088;28;20039;-20
2020/12/14 13:23:08;;;;;;;1.40;1.30;;;;;;;;;;5109924;28;20028;-20
2020/12/14 13:25:33;;;;;;;1.75;1.27;;;;;;;;;;5110052;28;20042;-21
2020/12/14 13:27:59;;;;;;;2.13;1.25;;;;;;;;;;5110353;28;20389;-20
2020/12/14 13:30:24;;;;;;;1.88;1.42;;;;;;;;;;5109828;28;20032;-20
2020/12/14 13:32:50;;;;;;;2.33;1.40;;;;;;;;;;5109358;28;20077;-21
2020/12/14 13:35:16;;;;;;;2.00;1.35;;;;;;;;;;5108401;28;20105;-20
2020/12/14 13:37:43;;;;;;;3.28;1.35;;;;;;;;;;5108167;28;20047;-22
2020/12/14 13:40:09;;;;;;;1.73;0.90;;;;;;;;;;5108474;28;20024;-18
2020/12/14 13:42:35;;;;;;;2.58;1.48;;;;;;;;;;5110162;28;20053;-20
2020/12/14 13:45:00;;;;;;;1.75;1.40;;;;;;;;;;5108582;28;20035;-21
2020/12/14 13:47:26;;;;;;;2.40;1.00;;;;;;;;;;5108661;28;20034;-21
2020/12/14 13:49:51;;;;;;;1.65;1.23;;;;;;;;;;5109782;28;20051;-20
2020/12/14 13:52:17;;;;;;;1.65;1.35;;;;;;;;;;5109965;28;20066;-21
2020/12/14 13:54:43;;;;;;;1.65;1.08;;;;;;;;;;5110018;28;20081;-20
2020/12/14 13:57:08;;;;;;;2.42;1.50;;;;;;;;;;5109330;28;20032;-21
2020/12/14 13:59:34;;;;;;;1.15;0.90;;;;;;;;;;5109438;28;20039;-20
2020/12/14 14:01:59;;;;;;;1.30;1.13;;;;;;;;;;5109571;28;20466;-20
2020/12/14 14:04:25;;;;;;;1.63;1.40;;;;;;;;;;5109682;28;20043;-18
2020/12/14 14:06:50;;;;;;;1.58;1.00;;;;;;;;;;5109592;28;20014;-19
2020/12/14 14:09:17;;;;;;;1.52;1.20;;;;;;;;;;5109196;28;20074;-19
2020/12/14 14:11:42;;;;;;;1.42;1.13;;;;;;;;;;5108322;28;20474;-18
2020/12/14 14:14:08;;;;;;;2.15;1.67;;;;;;;;;;5108923;28;20024;-18
2020/12/14 14:16:33;;;;;;;3.13;1.50;;;;;;;;;;5091057;28;20026;-19
2020/12/14 14:18:59;;;;;;;3.17;1.50;;;;;;;;;;5109234;28;20102;-18
2020/12/14 14:21:24;;;;;;;2.58;1.30;;;;;;;;;;5108908;28;20023;-17
2020/12/14 14:23:49;;;;;;;1.60;1.17;;;;;;;;;;5107415;28;20122;-19
2020/12/14 14:26:15;;;;;;;2.88;1.70;;;;;;;;;;5107621;28;20107;-19
2020/12/14 14:28:41;;;;;;;2.97;1.58;;;;;;;;;;5109066;28;20084;-19
2020/12/14 14:31:06;;;;;;;2.22;1.25;;;;;;;;;;5109271;28;20054;-18
2020/12/14 14:33:32;;;;;;;2.17;1.30;;;;;;;;;;5108935;28;20462;-19
2020/12/14 14:35:57;;;;;;;2.33;1.35;;;;;;;;;;5107805;28;20110;-18
2020/12/14 14:38:23;;;;;;;0.90;0.90;;;;;;;;;;5109225;28;20038;-20